Check out our new PWSWeather beta!
PWSweather.com
Personal Weather Stations
Station Observations
79674
AfterstegDE 79674

AfterstegDE 79674

Lat: 47.84344, Lon: 7.92844

Elevation: 809

Station Type: Davis Vantage 2 Aktive

www.wetter-aftersteg.de

High Low Average
Temperature 66.0°F18.9°C 45.3°F7.4°C 54.6°F12.6°C
Dew Point 57.2°F14.0°C 44.1°F6.7°C 50.9°F10.5°C
Winds 10.1 mph 16.3 kmh Calm Calm 2.0 mph SE3.2 kmh SE
Wind Gusts 17.9 mph28.8 kmh -- 2.0 mph3.2 kmh
Humidity 96% 70% 88%
Pressure 29.96 in1014.6 mb 29.72 in1006.4 mb -
Precipitation 0.35 in8.9 mm - -
Hour Temp Dew Point Humidity Winds Wind Gusts Pressure Precip Precip Rate Daily Precip Total
12:02 AM 45.7°F7.6°C 44.4°F6.9°C 95% Calm Calm -- 29.97 in1014.9 mb - 0.00 in0.0 mm 0.00 in0.0 mm
12:07 AM 45.7°F7.6°C 44.4°F6.9°C 95% Calm Calm -- 29.96 in1014.6 mb - 0.00 in0.0 mm 0.00 in0.0 mm
12:12 AM 45.7°F7.6°C 44.4°F6.9°C 95% Calm Calm -- 29.96 in1014.6 mb - 0.00 in0.0 mm 0.00 in0.0 mm
12:17 AM 45.7°F7.6°C 44.4°F6.9°C 95% Calm Calm -- 29.96 in1014.6 mb - 0.00 in0.0 mm 0.00 in0.0 mm
12:22 AM 45.5°F7.5°C 44.2°F6.8°C 95% Calm Calm -- 29.96 in1014.6 mb - 0.00 in0.0 mm 0.00 in0.0 mm
12:27 AM 45.5°F7.5°C 44.2°F6.8°C 95% Calm Calm -- 29.96 in1014.6 mb - 0.00 in0.0 mm 0.00 in0.0 mm
12:32 AM 45.7°F7.6°C 44.4°F6.9°C 95% Calm Calm -- 29.96 in1014.6 mb - 0.00 in0.0 mm 0.00 in0.0 mm
12:37 AM 45.7°F7.6°C 44.4°F6.9°C 95% Calm Calm -- 29.96 in1014.6 mb - 0.00 in0.0 mm 0.00 in0.0 mm
12:42 AM 45.9°F7.7°C 44.4°F6.9°C 95% Calm Calm -- 29.96 in1014.6 mb - 0.00 in0.0 mm 0.00 in0.0 mm
12:47 AM 45.9°F7.7°C 44.4°F6.9°C 95% Calm Calm -- 29.96 in1014.6 mb - 0.00 in0.0 mm 0.00 in0.0 mm
12:52 AM 45.9°F7.7°C 44.4°F6.9°C 95% Calm Calm -- 29.96 in1014.6 mb - 0.00 in0.0 mm 0.00 in0.0 mm
12:57 AM 45.7°F7.6°C 44.4°F6.9°C 95% Calm Calm -- 29.96 in1014.6 mb - 0.00 in0.0 mm 0.00 in0.0 mm
01:02 AM 45.7°F7.6°C 44.4°F6.9°C 95% Calm Calm -- 29.96 in1014.6 mb - 0.00 in0.0 mm 0.00 in0.0 mm
01:07 AM 45.9°F7.7°C 44.4°F6.9°C 95% Calm Calm -- 29.96 in1014.6 mb - 0.00 in0.0 mm 0.00 in0.0 mm
01:12 AM 45.9°F7.7°C 44.8°F7.1°C 96% Calm Calm -- 29.96 in1014.6 mb - 0.00 in0.0 mm 0.00 in0.0 mm
01:17 AM 46.0°F7.8°C 45.0°F7.2°C 96% Calm Calm -- 29.96 in1014.6 mb - 0.00 in0.0 mm 0.00 in0.0 mm
01:22 AM 46.2°F7.9°C 45.1°F7.3°C 96% Calm Calm -- 29.96 in1014.6 mb - 0.00 in0.0 mm 0.00 in0.0 mm
01:27 AM 46.0°F7.8°C 44.6°F7.0°C 95% Calm Calm -- 29.96 in1014.6 mb - 0.00 in0.0 mm 0.00 in0.0 mm
01:32 AM 46.2°F7.9°C 45.1°F7.3°C 96% Calm Calm -- 29.96 in1014.6 mb - 0.00 in0.0 mm 0.00 in0.0 mm
01:37 AM 46.0°F7.8°C 44.6°F7.0°C 95% Calm Calm -- 29.95 in1014.2 mb - 0.00 in0.0 mm 0.00 in0.0 mm
01:42 AM 46.6°F8.1°C 45.5°F7.5°C 96% Calm Calm -- 29.96 in1014.6 mb - 0.00 in0.0 mm 0.00 in0.0 mm
01:47 AM 45.9°F7.7°C 44.4°F6.9°C 95% Calm Calm -- 29.95 in1014.2 mb - 0.00 in0.0 mm 0.00 in0.0 mm
01:52 AM 46.2°F7.9°C 45.1°F7.3°C 96% Calm Calm -- 29.95 in1014.2 mb - 0.00 in0.0 mm 0.00 in0.0 mm
01:57 AM 46.4°F8.0°C 45.3°F7.4°C 96% Calm Calm -- 29.94 in1013.9 mb - 0.00 in0.0 mm 0.00 in0.0 mm
02:02 AM 46.6°F8.1°C 45.5°F7.5°C 96% Calm Calm -- 29.95 in1014.2 mb - 0.00 in0.0 mm 0.00 in0.0 mm
02:07 AM 46.9°F8.3°C 45.9°F7.7°C 96% Calm Calm -- 29.94 in1013.9 mb - 0.00 in0.0 mm 0.00 in0.0 mm
02:12 AM 46.8°F8.2°C 45.7°F7.6°C 96% Calm Calm -- 29.94 in1013.9 mb - 0.00 in0.0 mm 0.00 in0.0 mm
02:17 AM 46.6°F8.1°C 45.5°F7.5°C 96% Calm Calm -- 29.94 in1013.9 mb - 0.00 in0.0 mm 0.00 in0.0 mm
02:22 AM 46.6°F8.1°C 45.5°F7.5°C 96% Calm Calm -- 29.94 in1013.9 mb - 0.00 in0.0 mm 0.00 in0.0 mm
02:27 AM 46.6°F8.1°C 45.5°F7.5°C 96% Calm Calm -- 29.94 in1013.9 mb - 0.00 in0.0 mm 0.00 in0.0 mm
02:32 AM 46.6°F8.1°C 45.5°F7.5°C 96% Calm Calm -- 29.94 in1013.9 mb - 0.00 in0.0 mm 0.00 in0.0 mm
02:37 AM 46.6°F8.1°C 45.5°F7.5°C 96% Calm Calm -- 29.94 in1013.9 mb - 0.00 in0.0 mm 0.00 in0.0 mm
02:42 AM 46.6°F8.1°C 45.5°F7.5°C 96% Calm Calm -- 29.94 in1013.9 mb - 0.00 in0.0 mm 0.00 in0.0 mm
02:47 AM 46.6°F8.1°C 45.5°F7.5°C 96% Calm Calm -- 29.93 in1013.5 mb - 0.00 in0.0 mm 0.00 in0.0 mm
02:52 AM 46.8°F8.2°C 45.7°F7.6°C 96% Calm Calm -- 29.93 in1013.5 mb - 0.00 in0.0 mm 0.00 in0.0 mm
02:57 AM 46.8°F8.2°C 45.7°F7.6°C 96% Calm Calm -- 29.93 in1013.5 mb - 0.00 in0.0 mm 0.00 in0.0 mm
03:02 AM 46.0°F7.8°C 44.6°F7.0°C 95% Calm Calm -- 29.93 in1013.5 mb - 0.00 in0.0 mm 0.00 in0.0 mm
03:07 AM 46.4°F8.0°C 45.3°F7.4°C 96% Calm Calm -- 29.93 in1013.5 mb - 0.00 in0.0 mm 0.00 in0.0 mm
03:12 AM 46.4°F8.0°C 45.3°F7.4°C 96% Calm Calm -- 29.93 in1013.5 mb - 0.00 in0.0 mm 0.00 in0.0 mm
03:17 AM 46.4°F8.0°C 45.3°F7.4°C 96% Calm Calm -- 29.93 in1013.5 mb - 0.00 in0.0 mm 0.00 in0.0 mm
03:22 AM 46.6°F8.1°C 45.5°F7.5°C 96% Calm Calm -- 29.93 in1013.5 mb - 0.00 in0.0 mm 0.00 in0.0 mm
03:27 AM 46.8°F8.2°C 45.7°F7.6°C 96% Calm Calm -- 29.92 in1013.2 mb - 0.00 in0.0 mm 0.00 in0.0 mm
03:32 AM 46.4°F8.0°C 45.3°F7.4°C 96% Calm Calm -- 29.92 in1013.2 mb - 0.00 in0.0 mm 0.00 in0.0 mm
03:37 AM 46.6°F8.1°C 45.5°F7.5°C 96% Calm Calm -- 29.92 in1013.2 mb - 0.00 in0.0 mm 0.00 in0.0 mm
03:42 AM 46.6°F8.1°C 45.5°F7.5°C 96% Calm Calm -- 29.92 in1013.2 mb - 0.00 in0.0 mm 0.00 in0.0 mm
03:47 AM 46.6°F8.1°C 45.5°F7.5°C 96% Calm Calm -- 29.92 in1013.2 mb - 0.00 in0.0 mm 0.00 in0.0 mm
03:52 AM 46.2°F7.9°C 45.1°F7.3°C 96% Calm Calm -- 29.92 in1013.2 mb - 0.00 in0.0 mm 0.00 in0.0 mm
03:57 AM 46.4°F8.0°C 45.3°F7.4°C 96% Calm Calm -- 29.92 in1013.2 mb - 0.00 in0.0 mm 0.00 in0.0 mm
04:02 AM 46.2°F7.9°C 45.1°F7.3°C 96% Calm Calm -- 29.91 in1012.9 mb - 0.00 in0.0 mm 0.00 in0.0 mm
04:07 AM 45.9°F7.7°C 44.8°F7.1°C 96% Calm Calm -- 29.91 in1012.9 mb - 0.00 in0.0 mm 0.00 in0.0 mm
04:12 AM 46.0°F7.8°C 45.0°F7.2°C 96% Calm Calm -- 29.91 in1012.9 mb - 0.00 in0.0 mm 0.00 in0.0 mm
04:17 AM 46.2°F7.9°C 45.1°F7.3°C 96% Calm Calm -- 29.91 in1012.9 mb - 0.00 in0.0 mm 0.00 in0.0 mm
04:22 AM 46.2°F7.9°C 45.1°F7.3°C 96% Calm Calm -- 29.91 in1012.9 mb - 0.00 in0.0 mm 0.00 in0.0 mm
04:27 AM 46.2°F7.9°C 45.1°F7.3°C 96% Calm Calm -- 29.91 in1012.9 mb - 0.00 in0.0 mm 0.00 in0.0 mm
04:32 AM 46.0°F7.8°C 45.0°F7.2°C 96% Calm Calm -- 29.91 in1012.9 mb - 0.00 in0.0 mm 0.00 in0.0 mm
04:37 AM 46.0°F7.8°C 45.0°F7.2°C 96% Calm Calm -- 29.91 in1012.9 mb - 0.00 in0.0 mm 0.00 in0.0 mm
04:42 AM 45.9°F7.7°C 44.8°F7.1°C 96% Calm Calm -- 29.91 in1012.9 mb - 0.00 in0.0 mm 0.00 in0.0 mm
04:47 AM 45.9°F7.7°C 44.8°F7.1°C 96% Calm Calm -- 29.91 in1012.9 mb - 0.00 in0.0 mm 0.00 in0.0 mm
04:52 AM 45.9°F7.7°C 44.8°F7.1°C 96% Calm Calm -- 29.91 in1012.9 mb - 0.00 in0.0 mm 0.01 in0.3 mm
04:57 AM 45.7°F7.6°C 44.6°F7.0°C 96% Calm Calm -- 29.91 in1012.9 mb - 0.00 in0.0 mm 0.01 in0.3 mm
05:02 AM 45.7°F7.6°C 44.6°F7.0°C 96% Calm Calm -- 29.91 in1012.9 mb - 0.00 in0.0 mm 0.01 in0.3 mm
05:07 AM 45.7°F7.6°C 44.6°F7.0°C 96% Calm Calm -- 29.91 in1012.9 mb - 0.00 in0.0 mm 0.01 in0.3 mm
05:12 AM 45.5°F7.5°C 44.4°F6.9°C 96% Calm Calm -- 29.91 in1012.9 mb - 0.00 in0.0 mm 0.01 in0.3 mm
05:17 AM 45.7°F7.6°C 44.6°F7.0°C 96% Calm Calm -- 29.90 in1012.5 mb - 0.00 in0.0 mm 0.01 in0.3 mm
05:22 AM 45.5°F7.5°C 44.4°F6.9°C 96% Calm Calm -- 29.90 in1012.5 mb - 0.00 in0.0 mm 0.01 in0.3 mm
05:27 AM 45.9°F7.7°C 44.8°F7.1°C 96% Calm Calm -- 29.89 in1012.2 mb - 0.00 in0.0 mm 0.01 in0.3 mm
05:32 AM 45.3°F7.4°C 44.1°F6.7°C 95% Calm Calm -- 29.89 in1012.2 mb - 0.00 in0.0 mm 0.01 in0.3 mm
05:37 AM 45.5°F7.5°C 44.4°F6.9°C 96% Calm Calm -- 29.90 in1012.5 mb - 0.00 in0.0 mm 0.01 in0.3 mm
05:42 AM 45.9°F7.7°C 44.8°F7.1°C 96% Calm Calm -- 29.89 in1012.2 mb - 0.00 in0.0 mm 0.01 in0.3 mm
05:47 AM 45.9°F7.7°C 44.8°F7.1°C 96% Calm Calm -- 29.89 in1012.2 mb - 0.00 in0.0 mm 0.01 in0.3 mm
05:52 AM 45.9°F7.7°C 44.8°F7.1°C 96% Calm Calm -- 29.89 in1012.2 mb - 0.00 in0.0 mm 0.01 in0.3 mm
05:57 AM 46.0°F7.8°C 45.0°F7.2°C 96% Calm Calm -- 29.88 in1011.9 mb - 0.00 in0.0 mm 0.01 in0.3 mm
06:02 AM 46.0°F7.8°C 45.0°F7.2°C 96% Calm Calm -- 29.88 in1011.9 mb - 0.00 in0.0 mm 0.01 in0.3 mm
06:07 AM 46.0°F7.8°C 44.6°F7.0°C 95% Calm Calm -- 29.88 in1011.9 mb - 0.00 in0.0 mm 0.01 in0.3 mm
06:12 AM 45.9°F7.7°C 44.4°F6.9°C 95% Calm Calm -- 29.88 in1011.9 mb - 0.00 in0.0 mm 0.01 in0.3 mm
06:17 AM 45.9°F7.7°C 44.8°F7.1°C 96% Calm Calm -- 29.88 in1011.9 mb - 0.00 in0.0 mm 0.01 in0.3 mm
06:22 AM 46.0°F7.8°C 45.0°F7.2°C 96% Calm Calm -- 29.88 in1011.9 mb - 0.00 in0.0 mm 0.01 in0.3 mm
06:27 AM 46.2°F7.9°C 45.1°F7.3°C 96% Calm Calm -- 29.88 in1011.9 mb - 0.00 in0.0 mm 0.01 in0.3 mm
06:32 AM 46.6°F8.1°C 45.5°F7.5°C 96% Calm Calm -- 29.88 in1011.9 mb - 0.00 in0.0 mm 0.01 in0.3 mm
06:37 AM 46.6°F8.1°C 45.5°F7.5°C 96% Calm Calm -- 29.88 in1011.9 mb - 0.00 in0.0 mm 0.01 in0.3 mm
06:42 AM 46.8°F8.2°C 45.7°F7.6°C 96% Calm Calm -- 29.88 in1011.9 mb - 0.00 in0.0 mm 0.01 in0.3 mm
06:47 AM 46.9°F8.3°C 45.9°F7.7°C 96% Calm Calm -- 29.88 in1011.9 mb - 0.00 in0.0 mm 0.01 in0.3 mm
06:52 AM 47.1°F8.4°C 46.0°F7.8°C 96% Calm Calm -- 29.88 in1011.9 mb - 0.00 in0.0 mm 0.01 in0.3 mm
06:57 AM 47.3°F8.5°C 46.2°F7.9°C 96% Calm Calm -- 29.88 in1011.9 mb - 0.00 in0.0 mm 0.01 in0.3 mm
07:02 AM 47.7°F8.7°C 46.6°F8.1°C 96% Calm Calm -- 29.88 in1011.9 mb - 0.00 in0.0 mm 0.01 in0.3 mm
07:07 AM 47.7°F8.7°C 46.2°F7.9°C 95% Calm Calm -- 29.88 in1011.9 mb - 0.00 in0.0 mm 0.01 in0.3 mm
07:12 AM 48.0°F8.9°C 46.9°F8.3°C 96% Calm Calm -- 29.88 in1011.9 mb - 0.00 in0.0 mm 0.01 in0.3 mm
07:17 AM 48.4°F9.1°C 46.9°F8.3°C 95% Calm Calm -- 29.88 in1011.9 mb - 0.00 in0.0 mm 0.01 in0.3 mm
07:22 AM 48.6°F9.2°C 47.1°F8.4°C 95% Calm Calm -- 29.88 in1011.9 mb - 0.00 in0.0 mm 0.01 in0.3 mm
07:27 AM 48.7°F9.3°C 47.3°F8.5°C 95% Calm Calm -- 29.88 in1011.9 mb - 0.00 in0.0 mm 0.01 in0.3 mm
07:32 AM 49.5°F9.7°C 48.0°F8.9°C 95% Calm Calm -- 29.88 in1011.9 mb - 0.00 in0.0 mm 0.01 in0.3 mm
07:37 AM 49.8°F9.9°C 48.4°F9.1°C 95% Calm Calm -- 29.88 in1011.9 mb - 0.00 in0.0 mm 0.01 in0.3 mm
07:42 AM 50.4°F10.2°C 48.9°F9.4°C 95% Calm Calm -- 29.88 in1011.9 mb - 0.00 in0.0 mm 0.01 in0.3 mm
07:47 AM 51.4°F10.8°C 50.0°F10.0°C 95% Calm Calm -- 29.87 in1011.5 mb - 0.00 in0.0 mm 0.01 in0.3 mm
07:52 AM 51.6°F10.9°C 49.6°F9.8°C 93% Calm Calm -- 29.87 in1011.5 mb - 0.00 in0.0 mm 0.01 in0.3 mm
07:57 AM 52.2°F11.2°C 49.8°F9.9°C 92% Calm Calm -- 29.87 in1011.5 mb - 0.00 in0.0 mm 0.01 in0.3 mm
08:02 AM 52.5°F11.4°C 49.6°F9.8°C 90% Calm Calm -- 29.87 in1011.5 mb - 0.00 in0.0 mm 0.01 in0.3 mm
08:07 AM 53.4°F11.9°C 50.9°F10.5°C 91% Calm Calm -- 29.87 in1011.5 mb - 0.00 in0.0 mm 0.01 in0.3 mm
08:12 AM 53.4°F11.9°C 50.2°F10.1°C 89% Calm Calm -- 29.87 in1011.5 mb - 0.00 in0.0 mm 0.01 in0.3 mm
08:17 AM 53.6°F12.0°C 50.2°F10.1°C 88% Calm Calm -- 29.87 in1011.5 mb - 0.00 in0.0 mm 0.01 in0.3 mm
08:22 AM 53.8°F12.1°C 50.4°F10.2°C 88% Calm Calm -- 29.87 in1011.5 mb - 0.00 in0.0 mm 0.01 in0.3 mm
08:27 AM 53.6°F12.0°C 50.2°F10.1°C 88% Calm Calm -- 29.87 in1011.5 mb - 0.00 in0.0 mm 0.01 in0.3 mm
08:32 AM 53.8°F12.1°C 50.5°F10.3°C 89% Calm Calm -- 29.87 in1011.5 mb - 0.00 in0.0 mm 0.01 in0.3 mm
08:37 AM 54.0°F12.2°C 50.7°F10.4°C 89% Calm Calm -- 29.86 in1011.2 mb - 0.00 in0.0 mm 0.01 in0.3 mm
08:42 AM 54.1°F12.3°C 50.7°F10.4°C 88% Calm Calm -- 29.86 in1011.2 mb - 0.00 in0.0 mm 0.01 in0.3 mm
08:47 AM 54.3°F12.4°C 50.9°F10.5°C 88% Calm Calm -- 29.86 in1011.2 mb - 0.00 in0.0 mm 0.01 in0.3 mm
08:52 AM 55.0°F12.8°C 51.8°F11.0°C 89% Calm Calm -- 29.86 in1011.2 mb - 0.00 in0.0 mm 0.01 in0.3 mm
08:57 AM 56.1°F13.4°C 51.4°F10.8°C 84% Calm Calm -- 29.86 in1011.2 mb - 0.00 in0.0 mm 0.01 in0.3 mm
09:02 AM 56.7°F13.7°C 51.3°F10.7°C 82% Calm Calm -- 29.86 in1011.2 mb - 0.00 in0.0 mm 0.01 in0.3 mm
09:07 AM 56.8°F13.8°C 51.1°F10.6°C 81% Calm Calm -- 29.86 in1011.2 mb - 0.00 in0.0 mm 0.01 in0.3 mm
09:12 AM 57.6°F14.2°C 51.4°F10.8°C 80% Calm Calm -- 29.86 in1011.2 mb - 0.00 in0.0 mm 0.01 in0.3 mm
09:17 AM 57.6°F14.2°C 51.1°F10.6°C 79% Calm Calm -- 29.86 in1011.2 mb - 0.00 in0.0 mm 0.01 in0.3 mm
09:22 AM 57.6°F14.2°C 51.4°F10.8°C 80% Calm Calm -- 29.86 in1011.2 mb - 0.00 in0.0 mm 0.01 in0.3 mm
09:27 AM 57.7°F14.3°C 51.6°F10.9°C 80% 0.9 mph S1.4 kmh S -- 29.86 in1011.2 mb - 0.00 in0.0 mm 0.01 in0.3 mm
09:32 AM 57.7°F14.3°C 51.6°F10.9°C 80% 0.9 mph S1.4 kmh S -- 29.85 in1010.8 mb - 0.00 in0.0 mm 0.01 in0.3 mm
09:37 AM 58.3°F14.6°C 51.4°F10.8°C 78% 0.9 mph SSE1.4 kmh SSE -- 29.86 in1011.2 mb - 0.00 in0.0 mm 0.01 in0.3 mm
09:42 AM 59.2°F15.1°C 52.7°F11.5°C 79% 0.9 mph SE1.4 kmh SE -- 29.85 in1010.8 mb - 0.00 in0.0 mm 0.01 in0.3 mm
09:47 AM 59.4°F15.2°C 52.5°F11.4°C 78% 0.9 mph S1.4 kmh S 2.9 mph4.7 kmh 29.85 in1010.8 mb - 0.00 in0.0 mm 0.01 in0.3 mm
09:52 AM 59.5°F15.3°C 52.3°F11.3°C 77% 2.0 mph E3.2 kmh E 6.0 mph9.7 kmh 29.85 in1010.8 mb - 0.00 in0.0 mm 0.01 in0.3 mm
09:57 AM 59.9°F15.5°C 52.7°F11.5°C 77% 2.9 mph S4.7 kmh S -- 29.85 in1010.8 mb - 0.00 in0.0 mm 0.01 in0.3 mm
10:02 AM 60.4°F15.8°C 52.9°F11.6°C 76% 2.0 mph SSE3.2 kmh SSE -- 29.85 in1010.8 mb - 0.00 in0.0 mm 0.01 in0.3 mm
10:07 AM 60.8°F16.0°C 53.6°F12.0°C 77% 2.0 mph SE3.2 kmh SE 4.0 mph6.4 kmh 29.84 in1010.5 mb - 0.00 in0.0 mm 0.01 in0.3 mm
10:12 AM 61.5°F16.4°C 54.0°F12.2°C 76% 2.9 mph SE4.7 kmh SE -- 29.84 in1010.5 mb - 0.00 in0.0 mm 0.01 in0.3 mm
10:17 AM 62.1°F16.7°C 54.0°F12.2°C 75% 4.0 mph SE6.4 kmh SE 6.0 mph9.7 kmh 29.84 in1010.5 mb - 0.00 in0.0 mm 0.01 in0.3 mm
10:22 AM 62.1°F16.7°C 53.6°F12.0°C 74% 4.0 mph SE6.4 kmh SE 4.0 mph6.4 kmh 29.85 in1010.8 mb - 0.00 in0.0 mm 0.01 in0.3 mm
10:27 AM 62.4°F16.9°C 54.3°F12.4°C 75% 4.0 mph ESE6.4 kmh ESE 11.0 mph17.7 kmh 29.84 in1010.5 mb - 0.00 in0.0 mm 0.01 in0.3 mm
10:32 AM 62.2°F16.8°C 53.4°F11.9°C 73% 4.0 mph E6.4 kmh E 4.0 mph6.4 kmh 29.84 in1010.5 mb - 0.00 in0.0 mm 0.01 in0.3 mm
10:37 AM 62.1°F16.7°C 53.2°F11.8°C 73% 4.0 mph SSE6.4 kmh SSE 4.9 mph7.9 kmh 29.85 in1010.8 mb - 0.00 in0.0 mm 0.01 in0.3 mm
10:42 AM 61.9°F16.6°C 53.4°F11.9°C 74% 2.9 mph SE4.7 kmh SE -- 29.84 in1010.5 mb - 0.00 in0.0 mm 0.01 in0.3 mm
10:47 AM 62.2°F16.8°C 53.8°F12.1°C 74% 2.9 mph E4.7 kmh E 10.1 mph16.3 kmh 29.84 in1010.5 mb - 0.00 in0.0 mm 0.01 in0.3 mm
10:52 AM 62.4°F16.9°C 53.6°F12.0°C 73% 2.9 mph SE4.7 kmh SE 2.0 mph3.2 kmh 29.84 in1010.5 mb - 0.00 in0.0 mm 0.01 in0.3 mm
10:57 AM 62.4°F16.9°C 53.6°F12.0°C 73% 4.0 mph SE6.4 kmh SE 6.0 mph9.7 kmh 29.84 in1010.5 mb - 0.00 in0.0 mm 0.01 in0.3 mm
11:02 AM 62.8°F17.1°C 54.0°F12.2°C 73% 4.9 mph SSE7.9 kmh SSE 4.9 mph7.9 kmh 29.83 in1010.2 mb - 0.00 in0.0 mm 0.01 in0.3 mm
11:07 AM 63.1°F17.3°C 54.3°F12.4°C 73% 4.9 mph SE7.9 kmh SE 6.9 mph11.1 kmh 29.83 in1010.2 mb - 0.00 in0.0 mm 0.01 in0.3 mm
11:12 AM 62.4°F16.9°C 53.6°F12.0°C 73% 4.0 mph S6.4 kmh S 4.9 mph7.9 kmh 29.83 in1010.2 mb - 0.00 in0.0 mm 0.01 in0.3 mm
11:17 AM 62.1°F16.7°C 54.0°F12.2°C 75% 4.0 mph SSE6.4 kmh SSE 2.9 mph4.7 kmh 29.83 in1010.2 mb - 0.00 in0.0 mm 0.01 in0.3 mm
11:22 AM 62.4°F16.9°C 54.0°F12.2°C 74% 4.0 mph SE6.4 kmh SE 0.9 mph1.4 kmh 29.83 in1010.2 mb - 0.00 in0.0 mm 0.01 in0.3 mm
11:27 AM 63.5°F17.5°C 54.7°F12.6°C 73% 4.0 mph SE6.4 kmh SE -- 29.83 in1010.2 mb - 0.00 in0.0 mm 0.01 in0.3 mm
11:32 AM 63.7°F17.6°C 54.1°F12.3°C 71% 4.0 mph SE6.4 kmh SE -- 29.83 in1010.2 mb - 0.00 in0.0 mm 0.01 in0.3 mm
11:37 AM 64.2°F17.9°C 54.3°F12.4°C 70% 4.0 mph S6.4 kmh S -- 29.83 in1010.2 mb - 0.00 in0.0 mm 0.01 in0.3 mm
11:42 AM 64.0°F17.8°C 54.5°F12.5°C 71% 2.9 mph S4.7 kmh S 4.0 mph6.4 kmh 29.83 in1010.2 mb - 0.00 in0.0 mm 0.01 in0.3 mm
11:47 AM 63.3°F17.4°C 54.1°F12.3°C 72% 2.9 mph SE4.7 kmh SE 8.9 mph14.3 kmh 29.83 in1010.2 mb - 0.00 in0.0 mm 0.01 in0.3 mm
11:52 AM 63.0°F17.2°C 53.8°F12.1°C 72% 4.0 mph SE6.4 kmh SE 0.9 mph1.4 kmh 29.83 in1010.2 mb - 0.00 in0.0 mm 0.01 in0.3 mm
11:57 AM 62.4°F16.9°C 53.6°F12.0°C 73% 2.9 mph SE4.7 kmh SE -- 29.83 in1010.2 mb - 0.00 in0.0 mm 0.01 in0.3 mm
12:02 PM 62.2°F16.8°C 53.4°F11.9°C 73% 2.0 mph SE3.2 kmh SE 4.0 mph6.4 kmh 29.83 in1010.2 mb - 0.00 in0.0 mm 0.01 in0.3 mm
12:07 PM 62.1°F16.7°C 53.6°F12.0°C 74% 2.0 mph SE3.2 kmh SE -- 29.83 in1010.2 mb - 0.00 in0.0 mm 0.01 in0.3 mm
12:12 PM 61.9°F16.6°C 53.4°F11.9°C 74% 0.9 mph S1.4 kmh S -- 29.83 in1010.2 mb - 0.00 in0.0 mm 0.01 in0.3 mm
12:17 PM 61.5°F16.4°C 54.0°F12.2°C 76% 0.9 mph ENE1.4 kmh ENE -- 29.82 in1009.8 mb - 0.00 in0.0 mm 0.01 in0.3 mm
12:22 PM 61.2°F16.2°C 54.0°F12.2°C 77% Calm Calm -- 29.82 in1009.8 mb - 0.00 in0.0 mm 0.01 in0.3 mm
12:27 PM 61.0°F16.1°C 54.1°F12.3°C 78% Calm Calm -- 29.82 in1009.8 mb - 0.00 in0.0 mm 0.01 in0.3 mm
12:32 PM 60.6°F15.9°C 54.5°F12.5°C 80% Calm Calm -- 29.82 in1009.8 mb - 0.00 in0.0 mm 0.01 in0.3 mm
12:37 PM 61.0°F16.1°C 55.4°F13.0°C 82% Calm Calm -- 29.81 in1009.5 mb - 0.00 in0.0 mm 0.01 in0.3 mm
12:42 PM 61.9°F16.6°C 55.2°F12.9°C 79% Calm Calm -- 29.81 in1009.5 mb - 0.00 in0.0 mm 0.01 in0.3 mm
12:47 PM 61.7°F16.5°C 54.9°F12.7°C 78% Calm Calm -- 29.80 in1009.1 mb - 0.00 in0.0 mm 0.01 in0.3 mm
12:52 PM 62.1°F16.7°C 54.7°F12.6°C 77% 0.9 mph S1.4 kmh S 6.0 mph9.7 kmh 29.80 in1009.1 mb - 0.00 in0.0 mm 0.01 in0.3 mm
12:57 PM 63.3°F17.4°C 55.9°F13.3°C 77% 2.9 mph SSE4.7 kmh SSE 2.9 mph4.7 kmh 29.80 in1009.1 mb - 0.00 in0.0 mm 0.01 in0.3 mm
01:02 PM 64.4°F18.0°C 56.3°F13.5°C 75% 2.9 mph ESE4.7 kmh ESE 4.0 mph6.4 kmh 29.79 in1008.8 mb - 0.00 in0.0 mm 0.01 in0.3 mm
01:07 PM 64.6°F18.1°C 56.5°F13.6°C 75% 2.0 mph ESE3.2 kmh ESE 2.0 mph3.2 kmh 29.79 in1008.8 mb - 0.00 in0.0 mm 0.01 in0.3 mm
01:12 PM 64.8°F18.2°C 55.6°F13.1°C 72% 2.0 mph S3.2 kmh S -- 29.79 in1008.8 mb - 0.00 in0.0 mm 0.01 in0.3 mm
01:17 PM 66.0°F18.9°C 57.2°F14.0°C 73% 0.9 mph SW1.4 kmh SW -- 29.79 in1008.8 mb - 0.00 in0.0 mm 0.01 in0.3 mm
01:22 PM 64.2°F17.9°C 55.4°F13.0°C 73% 2.9 mph NW4.7 kmh NW 2.9 mph4.7 kmh 29.79 in1008.8 mb - 0.00 in0.0 mm 0.01 in0.3 mm
01:27 PM 63.3°F17.4°C 54.5°F12.5°C 73% 4.9 mph NNW7.9 kmh NNW 4.0 mph6.4 kmh 29.79 in1008.8 mb - 0.00 in0.0 mm 0.01 in0.3 mm
01:32 PM 63.1°F17.3°C 54.0°F12.2°C 72% 4.9 mph NNW7.9 kmh NNW 14.1 mph22.7 kmh 29.79 in1008.8 mb - 0.00 in0.0 mm 0.01 in0.3 mm
01:37 PM 62.4°F16.9°C 53.6°F12.0°C 73% 6.9 mph N11.1 kmh N 4.0 mph6.4 kmh 29.79 in1008.8 mb - 0.00 in0.0 mm 0.01 in0.3 mm
01:42 PM 62.1°F16.7°C 52.9°F11.6°C 72% 6.0 mph NW9.7 kmh NW 4.0 mph6.4 kmh 29.78 in1008.5 mb - 0.00 in0.0 mm 0.01 in0.3 mm
01:47 PM 61.9°F16.6°C 52.7°F11.5°C 72% 2.9 mph NNW4.7 kmh NNW -- 29.78 in1008.5 mb - 0.00 in0.0 mm 0.01 in0.3 mm
01:52 PM 61.9°F16.6°C 53.1°F11.7°C 73% 2.9 mph NNW4.7 kmh NNW 4.0 mph6.4 kmh 29.78 in1008.5 mb - 0.00 in0.0 mm 0.01 in0.3 mm
01:57 PM 61.9°F16.6°C 52.7°F11.5°C 72% 4.0 mph NW6.4 kmh NW 6.0 mph9.7 kmh 29.78 in1008.5 mb - 0.00 in0.0 mm 0.01 in0.3 mm
02:02 PM 61.9°F16.6°C 52.7°F11.5°C 72% 4.9 mph NNE7.9 kmh NNE -- 29.78 in1008.5 mb - 0.00 in0.0 mm 0.01 in0.3 mm
02:07 PM 61.9°F16.6°C 53.1°F11.7°C 73% 2.0 mph NNE3.2 kmh NNE -- 29.78 in1008.5 mb - 0.00 in0.0 mm 0.01 in0.3 mm
02:12 PM 61.9°F16.6°C 53.1°F11.7°C 73% Calm Calm -- 29.78 in1008.5 mb - 0.00 in0.0 mm 0.01 in0.3 mm
02:17 PM 62.1°F16.7°C 52.9°F11.6°C 72% Calm Calm -- 29.78 in1008.5 mb - 0.00 in0.0 mm 0.01 in0.3 mm
02:22 PM 62.1°F16.7°C 53.2°F11.8°C 73% Calm Calm -- 29.78 in1008.5 mb - 0.00 in0.0 mm 0.01 in0.3 mm
02:27 PM 62.2°F16.8°C 53.4°F11.9°C 73% Calm Calm -- 29.77 in1008.1 mb - 0.00 in0.0 mm 0.01 in0.3 mm
02:32 PM 62.4°F16.9°C 52.9°F11.6°C 71% Calm Calm -- 29.77 in1008.1 mb - 0.00 in0.0 mm 0.01 in0.3 mm
02:37 PM 63.0°F17.2°C 53.4°F11.9°C 71% Calm Calm -- 29.77 in1008.1 mb - 0.00 in0.0 mm 0.01 in0.3 mm
02:42 PM 63.0°F17.2°C 53.1°F11.7°C 70% Calm Calm -- 29.77 in1008.1 mb - 0.00 in0.0 mm 0.01 in0.3 mm
02:47 PM 63.0°F17.2°C 53.1°F11.7°C 70% Calm Calm -- 29.77 in1008.1 mb - 0.00 in0.0 mm 0.01 in0.3 mm
02:52 PM 63.1°F17.3°C 53.6°F12.0°C 71% Calm Calm -- 29.77 in1008.1 mb - 0.00 in0.0 mm 0.01 in0.3 mm
02:57 PM 63.3°F17.4°C 53.4°F11.9°C 70% Calm Calm -- 29.77 in1008.1 mb - 0.00 in0.0 mm 0.01 in0.3 mm
03:02 PM 63.1°F17.3°C 53.2°F11.8°C 70% Calm Calm -- 29.77 in1008.1 mb - 0.00 in0.0 mm 0.01 in0.3 mm
03:07 PM 63.1°F17.3°C 53.6°F12.0°C 71% Calm Calm -- 29.77 in1008.1 mb - 0.00 in0.0 mm 0.01 in0.3 mm
03:12 PM 63.0°F17.2°C 53.1°F11.7°C 70% Calm Calm 2.0 mph3.2 kmh 29.76 in1007.8 mb - 0.00 in0.0 mm 0.01 in0.3 mm
03:17 PM 62.8°F17.1°C 52.9°F11.6°C 70% 0.9 mph SE1.4 kmh SE 2.0 mph3.2 kmh 29.76 in1007.8 mb - 0.00 in0.0 mm 0.01 in0.3 mm
03:22 PM 62.6°F17.0°C 52.7°F11.5°C 70% 2.0 mph ENE3.2 kmh ENE -- 29.75 in1007.5 mb - 0.00 in0.0 mm 0.01 in0.3 mm
03:27 PM 62.4°F16.9°C 52.9°F11.6°C 71% 2.0 mph NE3.2 kmh NE -- 29.76 in1007.8 mb - 0.00 in0.0 mm 0.01 in0.3 mm
03:32 PM 62.1°F16.7°C 52.9°F11.6°C 72% 2.0 mph E3.2 kmh E 2.9 mph4.7 kmh 29.76 in1007.8 mb - 0.00 in0.0 mm 0.01 in0.3 mm
03:37 PM 61.3°F16.3°C 53.4°F11.9°C 75% 2.0 mph SE3.2 kmh SE -- 29.77 in1008.1 mb - 0.00 in0.0 mm 0.02 in0.5 mm
03:42 PM 60.3°F15.7°C 53.8°F12.1°C 79% 2.0 mph NE3.2 kmh NE 2.9 mph4.7 kmh 29.77 in1008.1 mb - 0.09 in2.3 mm 0.02 in0.5 mm
03:47 PM 59.4°F15.2°C 53.8°F12.1°C 82% 2.0 mph ENE3.2 kmh ENE -- 29.76 in1007.8 mb - 0.08 in2.0 mm 0.02 in0.5 mm
03:52 PM 58.6°F14.8°C 53.8°F12.1°C 84% 2.0 mph E3.2 kmh E 4.9 mph7.9 kmh 29.76 in1007.8 mb - 0.12 in3.0 mm 0.04 in1.0 mm
03:57 PM 58.6°F14.8°C 54.5°F12.5°C 86% 0.9 mph SE1.4 kmh SE -- 29.77 in1008.1 mb - 0.06 in1.5 mm 0.04 in1.0 mm
04:02 PM 58.3°F14.6°C 54.5°F12.5°C 87% 0.9 mph ESE1.4 kmh ESE 4.9 mph7.9 kmh 29.76 in1007.8 mb - 0.03 in0.8 mm 0.04 in1.0 mm
04:07 PM 57.9°F14.4°C 54.3°F12.4°C 88% 2.0 mph SSE3.2 kmh SSE 2.0 mph3.2 kmh 29.76 in1007.8 mb - 0.03 in0.8 mm 0.05 in1.3 mm
04:12 PM 57.7°F14.3°C 54.5°F12.5°C 89% 0.9 mph S1.4 kmh S -- 29.77 in1008.1 mb - 0.09 in2.3 mm 0.06 in1.5 mm
04:17 PM 57.6°F14.2°C 54.7°F12.6°C 90% 0.9 mph SE1.4 kmh SE 2.0 mph3.2 kmh 29.76 in1007.8 mb - 0.06 in1.5 mm 0.06 in1.5 mm
04:22 PM 57.4°F14.1°C 54.5°F12.5°C 90% 2.0 mph SE3.2 kmh SE 2.9 mph4.7 kmh 29.77 in1008.1 mb - 0.03 in0.8 mm 0.06 in1.5 mm
04:27 PM 57.4°F14.1°C 54.9°F12.7°C 91% 0.9 mph SE1.4 kmh SE -- 29.77 in1008.1 mb - 0.00 in0.0 mm 0.06 in1.5 mm
04:32 PM 57.6°F14.2°C 55.2°F12.9°C 92% 0.9 mph SE1.4 kmh SE -- 29.77 in1008.1 mb - 0.00 in0.0 mm 0.06 in1.5 mm
04:37 PM 57.4°F14.1°C 54.9°F12.7°C 91% 0.9 mph ESE1.4 kmh ESE 2.9 mph4.7 kmh 29.77 in1008.1 mb - 0.00 in0.0 mm 0.06 in1.5 mm
04:42 PM 57.2°F14.0°C 54.9°F12.7°C 92% 0.9 mph ENE1.4 kmh ENE -- 29.76 in1007.8 mb - 0.00 in0.0 mm 0.06 in1.5 mm
04:47 PM 57.0°F13.9°C 54.7°F12.6°C 92% Calm Calm 4.0 mph6.4 kmh 29.76 in1007.8 mb - 0.00 in0.0 mm 0.06 in1.5 mm
04:52 PM 57.0°F13.9°C 54.7°F12.6°C 92% Calm Calm -- 29.76 in1007.8 mb - 0.00 in0.0 mm 0.06 in1.5 mm
04:57 PM 57.0°F13.9°C 54.7°F12.6°C 92% Calm Calm -- 29.76 in1007.8 mb - 0.00 in0.0 mm 0.06 in1.5 mm
05:02 PM 57.0°F13.9°C 54.7°F12.6°C 92% Calm Calm -- 29.75 in1007.5 mb - 0.00 in0.0 mm 0.06 in1.5 mm
05:07 PM 57.0°F13.9°C 54.7°F12.6°C 92% Calm Calm -- 29.75 in1007.5 mb - 0.00 in0.0 mm 0.06 in1.5 mm
05:12 PM 57.0°F13.9°C 54.7°F12.6°C 92% Calm Calm 4.0 mph6.4 kmh 29.76 in1007.8 mb - 0.00 in0.0 mm 0.06 in1.5 mm
05:17 PM 56.8°F13.8°C 54.5°F12.5°C 92% 0.9 mph SE1.4 kmh SE -- 29.76 in1007.8 mb - 0.00 in0.0 mm 0.06 in1.5 mm
05:22 PM 56.8°F13.8°C 54.3°F12.4°C 91% 0.9 mph E1.4 kmh E -- 29.76 in1007.8 mb - 0.00 in0.0 mm 0.06 in1.5 mm
05:27 PM 57.0°F13.9°C 54.5°F12.5°C 91% 0.9 mph E1.4 kmh E -- 29.76 in1007.8 mb - 0.00 in0.0 mm 0.06 in1.5 mm
05:32 PM 56.8°F13.8°C 54.3°F12.4°C 91% 2.0 mph E3.2 kmh E -- 29.76 in1007.8 mb - 0.00 in0.0 mm 0.06 in1.5 mm
05:37 PM 56.8°F13.8°C 54.0°F12.2°C 90% 2.0 mph NE3.2 kmh NE -- 29.76 in1007.8 mb - 0.00 in0.0 mm 0.06 in1.5 mm
05:42 PM 57.0°F13.9°C 54.1°F12.3°C 90% 2.0 mph NNW3.2 kmh NNW 6.9 mph11.1 kmh 29.76 in1007.8 mb - 0.00 in0.0 mm 0.06 in1.5 mm
05:47 PM 57.0°F13.9°C 54.1°F12.3°C 90% 2.9 mph N4.7 kmh N 2.9 mph4.7 kmh 29.75 in1007.5 mb - 0.00 in0.0 mm 0.06 in1.5 mm
05:52 PM 57.2°F14.0°C 54.0°F12.2°C 89% 2.9 mph W4.7 kmh W 0.9 mph1.4 kmh 29.75 in1007.5 mb - 0.00 in0.0 mm 0.06 in1.5 mm
05:57 PM 57.6°F14.2°C 54.0°F12.2°C 88% 0.9 mph SE1.4 kmh SE -- 29.75 in1007.5 mb - 0.00 in0.0 mm 0.06 in1.5 mm
06:02 PM 57.2°F14.0°C 54.0°F12.2°C 89% Calm Calm -- 29.76 in1007.8 mb - 0.00 in0.0 mm 0.06 in1.5 mm
06:07 PM 56.8°F13.8°C 53.6°F12.0°C 89% Calm Calm -- 29.76 in1007.8 mb - 0.00 in0.0 mm 0.07 in1.8 mm
06:12 PM 56.7°F13.7°C 53.8°F12.1°C 90% 0.9 mph SE1.4 kmh SE -- 29.76 in1007.8 mb - 0.06 in1.5 mm 0.07 in1.8 mm
06:17 PM 56.5°F13.6°C 53.6°F12.0°C 90% Calm Calm -- 29.76 in1007.8 mb - 0.06 in1.5 mm 0.08 in2.0 mm
06:22 PM 56.1°F13.4°C 53.6°F12.0°C 91% Calm Calm -- 29.76 in1007.8 mb - 0.04 in1.0 mm 0.08 in2.0 mm
06:27 PM 55.9°F13.3°C 53.6°F12.0°C 92% Calm Calm -- 29.76 in1007.8 mb - 0.03 in0.8 mm 0.08 in2.0 mm
06:32 PM 55.8°F13.2°C 53.4°F11.9°C 92% Calm Calm -- 29.76 in1007.8 mb - 0.00 in0.0 mm 0.09 in2.3 mm
06:37 PM 55.9°F13.3°C 53.6°F12.0°C 92% 0.9 mph SE1.4 kmh SE 2.0 mph3.2 kmh 29.76 in1007.8 mb - 0.09 in2.3 mm 0.09 in2.3 mm
06:42 PM 55.9°F13.3°C 53.6°F12.0°C 92% 4.0 mph E6.4 kmh E 8.1 mph13.0 kmh 29.76 in1007.8 mb - 0.06 in1.5 mm 0.09 in2.3 mm
06:47 PM 55.9°F13.3°C 53.6°F12.0°C 92% 6.0 mph E9.7 kmh E 2.0 mph3.2 kmh 29.76 in1007.8 mb - 0.04 in1.0 mm 0.09 in2.3 mm
06:52 PM 55.9°F13.3°C 53.6°F12.0°C 92% 4.9 mph S7.9 kmh S -- 29.76 in1007.8 mb - 0.04 in1.0 mm 0.10 in2.5 mm
06:57 PM 56.1°F13.4°C 53.8°F12.1°C 92% 2.9 mph SE4.7 kmh SE 6.0 mph9.7 kmh 29.75 in1007.5 mb - 0.06 in1.5 mm 0.10 in2.5 mm
07:02 PM 55.9°F13.3°C 53.6°F12.0°C 92% 6.0 mph ENE9.7 kmh ENE 4.0 mph6.4 kmh 29.75 in1007.5 mb - 0.08 in2.0 mm 0.11 in2.8 mm
07:07 PM 55.9°F13.3°C 53.6°F12.0°C 92% 6.9 mph ESE11.1 kmh ESE 2.0 mph3.2 kmh 29.76 in1007.8 mb - 0.09 in2.3 mm 0.12 in3.0 mm
07:12 PM 55.9°F13.3°C 53.6°F12.0°C 92% 6.9 mph E11.1 kmh E -- 29.76 in1007.8 mb - 0.07 in1.8 mm 0.13 in3.3 mm
07:17 PM 55.9°F13.3°C 53.6°F12.0°C 92% 6.0 mph ESE9.7 kmh ESE 4.0 mph6.4 kmh 29.77 in1008.1 mb - 0.05 in1.3 mm 0.13 in3.3 mm
07:22 PM 55.8°F13.2°C 53.8°F12.1°C 93% 6.0 mph NE9.7 kmh NE 11.0 mph17.7 kmh 29.76 in1007.8 mb - 0.07 in1.8 mm 0.13 in3.3 mm
07:27 PM 55.6°F13.1°C 53.2°F11.8°C 92% 8.1 mph SE13.0 kmh SE 8.1 mph13.0 kmh 29.76 in1007.8 mb - 0.10 in2.5 mm 0.14 in3.6 mm
07:32 PM 55.6°F13.1°C 53.2°F11.8°C 92% 8.1 mph SE13.0 kmh SE 8.1 mph13.0 kmh 29.75 in1007.5 mb - 0.09 in2.3 mm 0.15 in3.8 mm
07:37 PM 55.6°F13.1°C 53.2°F11.8°C 92% 6.9 mph NNW11.1 kmh NNW 12.1 mph19.5 kmh 29.75 in1007.5 mb - 0.08 in2.0 mm 0.16 in4.1 mm
07:42 PM 55.4°F13.0°C 53.1°F11.7°C 92% 6.9 mph NNE11.1 kmh NNE 12.1 mph19.5 kmh 29.75 in1007.5 mb - 0.09 in2.3 mm 0.17 in4.3 mm
07:47 PM 55.2°F12.9°C 52.9°F11.6°C 92% 8.1 mph S13.0 kmh S 4.9 mph7.9 kmh 29.75 in1007.5 mb - 0.09 in2.3 mm 0.17 in4.3 mm
07:52 PM 55.2°F12.9°C 52.9°F11.6°C 92% 8.1 mph ESE13.0 kmh ESE 8.1 mph13.0 kmh 29.75 in1007.5 mb - 0.15 in3.8 mm 0.18 in4.6 mm
07:57 PM 55.0°F12.8°C 52.7°F11.5°C 92% 8.9 mph ESE14.3 kmh ESE 8.9 mph14.3 kmh 29.75 in1007.5 mb - 0.23 in5.8 mm 0.19 in4.8 mm
08:02 PM 55.0°F12.8°C 53.1°F11.7°C 93% 8.9 mph N14.3 kmh N 13.0 mph20.9 kmh 29.76 in1007.8 mb - 0.12 in3.0 mm 0.20 in5.1 mm
08:07 PM 54.9°F12.7°C 52.5°F11.4°C 92% 10.1 mph ESE16.3 kmh ESE 12.1 mph19.5 kmh 29.75 in1007.5 mb - 0.13 in3.3 mm 0.22 in5.6 mm
08:12 PM 54.9°F12.7°C 52.5°F11.4°C 92% 10.1 mph S16.3 kmh S 17.9 mph28.8 kmh 29.75 in1007.5 mb - 0.19 in4.8 mm 0.23 in5.8 mm
08:17 PM 54.9°F12.7°C 52.5°F11.4°C 92% 8.1 mph SE13.0 kmh SE 2.0 mph3.2 kmh 29.75 in1007.5 mb - 0.19 in4.8 mm 0.24 in6.1 mm
08:22 PM 54.9°F12.7°C 52.5°F11.4°C 92% 8.1 mph E13.0 kmh E 8.9 mph14.3 kmh 29.75 in1007.5 mb - 0.09 in2.3 mm 0.26 in6.6 mm
08:27 PM 54.9°F12.7°C 52.5°F11.4°C 92% 8.1 mph SE13.0 kmh SE 6.9 mph11.1 kmh 29.75 in1007.5 mb - 0.06 in1.5 mm 0.26 in6.6 mm
08:32 PM 54.9°F12.7°C 52.9°F11.6°C 93% 8.1 mph SE13.0 kmh SE 6.0 mph9.7 kmh 29.75 in1007.5 mb - 0.06 in1.5 mm 0.27 in6.9 mm
08:37 PM 54.9°F12.7°C 52.9°F11.6°C 93% 6.9 mph SE11.1 kmh SE 6.9 mph11.1 kmh 29.74 in1007.1 mb - 0.06 in1.5 mm 0.27 in6.9 mm
08:42 PM 54.7°F12.6°C 52.7°F11.5°C 93% 6.9 mph SE11.1 kmh SE 4.9 mph7.9 kmh 29.74 in1007.1 mb - 0.06 in1.5 mm 0.28 in7.1 mm
08:47 PM 54.7°F12.6°C 52.7°F11.5°C 93% 6.0 mph SE9.7 kmh SE 6.9 mph11.1 kmh 29.74 in1007.1 mb - 0.04 in1.0 mm 0.28 in7.1 mm
08:52 PM 54.7°F12.6°C 52.7°F11.5°C 93% 4.9 mph SE7.9 kmh SE 6.0 mph9.7 kmh 29.73 in1006.8 mb - 0.03 in0.8 mm 0.28 in7.1 mm
08:57 PM 54.7°F12.6°C 52.7°F11.5°C 93% 4.9 mph SE7.9 kmh SE 4.9 mph7.9 kmh 29.73 in1006.8 mb - 0.03 in0.8 mm 0.28 in7.1 mm
09:02 PM 54.5°F12.5°C 52.5°F11.4°C 93% 6.0 mph SE9.7 kmh SE 6.0 mph9.7 kmh 29.73 in1006.8 mb - 0.03 in0.8 mm 0.28 in7.1 mm
09:07 PM 54.3°F12.4°C 52.3°F11.3°C 93% 6.0 mph SSE9.7 kmh SSE 4.9 mph7.9 kmh 29.73 in1006.8 mb - 0.03 in0.8 mm 0.28 in7.1 mm
09:12 PM 54.3°F12.4°C 52.7°F11.5°C 94% 6.0 mph ESE9.7 kmh ESE 8.1 mph13.0 kmh 29.73 in1006.8 mb - 0.00 in0.0 mm 0.28 in7.1 mm
09:17 PM 54.3°F12.4°C 52.7°F11.5°C 94% 6.0 mph SE9.7 kmh SE 6.9 mph11.1 kmh 29.74 in1007.1 mb - 0.00 in0.0 mm 0.28 in7.1 mm
09:22 PM 54.3°F12.4°C 52.7°F11.5°C 94% 4.9 mph E7.9 kmh E -- 29.74 in1007.1 mb - 0.00 in0.0 mm 0.28 in7.1 mm
09:27 PM 54.3°F12.4°C 52.7°F11.5°C 94% 4.9 mph ENE7.9 kmh ENE 4.9 mph7.9 kmh 29.74 in1007.1 mb - 0.00 in0.0 mm 0.28 in7.1 mm
09:32 PM 54.5°F12.5°C 52.9°F11.6°C 94% 2.9 mph SE4.7 kmh SE 6.0 mph9.7 kmh 29.74 in1007.1 mb - 0.13 in3.3 mm 0.29 in7.4 mm
09:37 PM 54.5°F12.5°C 52.9°F11.6°C 94% 4.9 mph E7.9 kmh E 2.0 mph3.2 kmh 29.74 in1007.1 mb - 0.12 in3.0 mm 0.31 in7.9 mm
09:42 PM 54.5°F12.5°C 52.9°F11.6°C 94% 6.0 mph ESE9.7 kmh ESE 14.1 mph22.7 kmh 29.74 in1007.1 mb - 0.10 in2.5 mm 0.31 in7.9 mm
09:47 PM 54.3°F12.4°C 52.7°F11.5°C 94% 6.0 mph S9.7 kmh S 2.9 mph4.7 kmh 29.74 in1007.1 mb - 0.06 in1.5 mm 0.31 in7.9 mm
09:52 PM 54.3°F12.4°C 52.7°F11.5°C 94% 4.0 mph SE6.4 kmh SE 4.9 mph7.9 kmh 29.74 in1007.1 mb - 0.05 in1.3 mm 0.32 in8.1 mm
09:57 PM 54.3°F12.4°C 52.7°F11.5°C 94% 2.0 mph ESE3.2 kmh ESE 2.0 mph3.2 kmh 29.74 in1007.1 mb - 0.09 in2.3 mm 0.32 in8.1 mm
10:02 PM 54.1°F12.3°C 52.5°F11.4°C 94% 2.9 mph ESE4.7 kmh ESE -- 29.74 in1007.1 mb - 0.09 in2.3 mm 0.33 in8.4 mm
10:07 PM 54.1°F12.3°C 52.5°F11.4°C 94% 2.0 mph SSE3.2 kmh SSE 4.0 mph6.4 kmh 29.74 in1007.1 mb - 0.06 in1.5 mm 0.34 in8.6 mm
10:12 PM 54.1°F12.3°C 52.5°F11.4°C 94% 2.0 mph SE3.2 kmh SE 2.9 mph4.7 kmh 29.73 in1006.8 mb - 0.06 in1.5 mm 0.35 in8.9 mm
10:17 PM 54.0°F12.2°C 52.3°F11.3°C 94% 2.9 mph SE4.7 kmh SE 2.0 mph3.2 kmh 29.73 in1006.8 mb - 0.05 in1.3 mm 0.35 in8.9 mm
10:22 PM 54.0°F12.2°C 52.5°F11.4°C 95% 2.0 mph SE3.2 kmh SE 0.9 mph1.4 kmh 29.73 in1006.8 mb - 0.03 in0.8 mm 0.35 in8.9 mm
10:27 PM 54.0°F12.2°C 52.5°F11.4°C 95% 0.9 mph E1.4 kmh E 8.9 mph14.3 kmh 29.73 in1006.8 mb - 0.00 in0.0 mm 0.35 in8.9 mm
10:32 PM 53.8°F12.1°C 52.3°F11.3°C 95% 2.9 mph SE4.7 kmh SE 4.9 mph7.9 kmh 29.73 in1006.8 mb - 0.00 in0.0 mm 0.35 in8.9 mm
10:37 PM 54.0°F12.2°C 52.5°F11.4°C 95% 4.0 mph E6.4 kmh E -- 29.74 in1007.1 mb - 0.00 in0.0 mm 0.35 in8.9 mm
10:42 PM 53.8°F12.1°C 52.3°F11.3°C 95% 2.9 mph NW4.7 kmh NW -- 29.74 in1007.1 mb - 0.00 in0.0 mm 0.35 in8.9 mm
10:47 PM 53.8°F12.1°C 52.3°F11.3°C 95% 2.9 mph S4.7 kmh S -- 29.73 in1006.8 mb - 0.00 in0.0 mm 0.35 in8.9 mm
10:52 PM 54.0°F12.2°C 52.3°F11.3°C 94% 2.0 mph ESE3.2 kmh ESE -- 29.73 in1006.8 mb - 0.00 in0.0 mm 0.35 in8.9 mm
10:57 PM 54.0°F12.2°C 52.3°F11.3°C 94% 2.0 mph SSE3.2 kmh SSE -- 29.73 in1006.8 mb - 0.00 in0.0 mm 0.35 in8.9 mm
11:02 PM 54.0°F12.2°C 52.3°F11.3°C 94% 2.0 mph SE3.2 kmh SE -- 29.73 in1006.8 mb - 0.00 in0.0 mm 0.35 in8.9 mm
11:07 PM 54.0°F12.2°C 52.3°F11.3°C 94% 0.9 mph SSE1.4 kmh SSE -- 29.73 in1006.8 mb - 0.00 in0.0 mm 4.22 in107.2 mm
11:12 PM 54.0°F12.2°C 52.3°F11.3°C 94% 2.9 mph S4.7 kmh S -- 29.73 in1006.8 mb - 0.00 in0.0 mm 4.22 in107.2 mm
11:17 PM 54.0°F12.2°C 52.3°F11.3°C 94% 4.0 mph SE6.4 kmh SE 4.0 mph6.4 kmh 29.73 in1006.8 mb - 0.00 in0.0 mm 4.22 in107.2 mm
11:22 PM 54.1°F12.3°C 52.5°F11.4°C 94% 4.0 mph SE6.4 kmh SE -- 29.72 in1006.4 mb - 0.00 in0.0 mm 4.22 in107.2 mm
11:27 PM 54.1°F12.3°C 52.5°F11.4°C 94% 2.0 mph SE3.2 kmh SE 4.0 mph6.4 kmh 29.73 in1006.8 mb - 0.00 in0.0 mm 4.22 in107.2 mm
11:32 PM 54.0°F12.2°C 52.3°F11.3°C 94% 2.9 mph ESE4.7 kmh ESE 10.1 mph16.3 kmh 29.72 in1006.4 mb - 0.00 in0.0 mm 4.22 in107.2 mm
11:37 PM 54.1°F12.3°C 52.5°F11.4°C 94% 4.9 mph SE7.9 kmh SE 2.0 mph3.2 kmh 29.72 in1006.4 mb - 0.00 in0.0 mm 4.22 in107.2 mm
11:42 PM 54.1°F12.3°C 52.5°F11.4°C 94% 4.0 mph SE6.4 kmh SE 2.9 mph4.7 kmh 29.72 in1006.4 mb - 0.00 in0.0 mm 4.22 in107.2 mm
11:47 PM 54.1°F12.3°C 52.5°F11.4°C 94% 2.9 mph S4.7 kmh S 2.9 mph4.7 kmh 29.72 in1006.4 mb - 0.00 in0.0 mm 4.22 in107.2 mm
11:52 PM 54.3°F12.4°C 52.3°F11.3°C 93% 2.9 mph SE4.7 kmh SE 4.9 mph7.9 kmh 29.72 in1006.4 mb - 0.00 in0.0 mm 4.22 in107.2 mm
11:57 PM 54.5°F12.5°C 52.5°F11.4°C 93% 2.9 mph SSW4.7 kmh SSW -- 29.72 in1006.4 mb - 0.00 in0.0 mm 4.22 in107.2 mm